sensor_id;sensor_type;location;lat;lon;timestamp;temperature;humidity
44775;DHT22;31340;51.402;0.016;2022-09-09T00:04:42;17.70;99.90
44775;DHT22;31340;51.402;0.016;2022-09-09T00:12:48;17.70;99.90
44775;DHT22;31340;51.402;0.016;2022-09-09T00:15:36;17.70;99.90
44775;DHT22;31340;51.402;0.016;2022-09-09T00:18:22;17.70;99.90
44775;DHT22;31340;51.402;0.016;2022-09-09T00:21:13;17.60;99.90
44775;DHT22;31340;51.402;0.016;2022-09-09T00:23:48;17.70;99.90
44775;DHT22;31340;51.402;0.016;2022-09-09T00:31:43;17.60;99.90
44775;DHT22;31340;51.402;0.016;2022-09-09T00:34:18;17.60;99.90
44775;DHT22;31340;51.402;0.016;2022-09-09T00:36:50;17.60;99.90
44775;DHT22;31340;51.402;0.016;2022-09-09T00:39:34;17.60;99.90
44775;DHT22;31340;51.402;0.016;2022-09-09T00:47:46;17.60;99.90
44775;DHT22;31340;51.402;0.016;2022-09-09T00:56:10;17.60;99.90
44775;DHT22;31340;51.402;0.016;2022-09-09T00:58:43;17.60;99.90
44775;DHT22;31340;51.402;0.016;2022-09-09T01:01:19;17.60;99.90
44775;DHT22;31340;51.402;0.016;2022-09-09T01:03:54;17.60;99.90
44775;DHT22;31340;51.402;0.016;2022-09-09T01:06:33;17.60;99.90
44775;DHT22;31340;51.402;0.016;2022-09-09T01:11:51;17.60;99.90
44775;DHT22;31340;51.402;0.016;2022-09-09T01:14:48;17.60;99.90
44775;DHT22;31340;51.402;0.016;2022-09-09T01:17:26;17.60;99.90
44775;DHT22;31340;51.402;0.016;2022-09-09T01:20:55;17.50;99.90
44775;DHT22;31340;51.402;0.016;2022-09-09T01:23:38;17.50;99.90
44775;DHT22;31340;51.402;0.016;2022-09-09T01:26:36;17.50;99.90
44775;DHT22;31340;51.402;0.016;2022-09-09T01:29:17;17.50;99.90
44775;DHT22;31340;51.402;0.016;2022-09-09T01:32:00;17.50;99.90
44775;DHT22;31340;51.402;0.016;2022-09-09T01:34:31;17.50;99.90
44775;DHT22;31340;51.402;0.016;2022-09-09T01:37:07;17.50;99.90
44775;DHT22;31340;51.402;0.016;2022-09-09T01:39:38;17.50;99.90
44775;DHT22;31340;51.402;0.016;2022-09-09T01:42:13;17.50;99.90
44775;DHT22;31340;51.402;0.016;2022-09-09T01:44:42;17.50;99.90
44775;DHT22;31340;51.402;0.016;2022-09-09T01:47:10;17.50;99.90
44775;DHT22;31340;51.402;0.016;2022-09-09T01:50:01;17.50;99.90
44775;DHT22;31340;51.402;0.016;2022-09-09T01:52:31;17.50;99.90
44775;DHT22;31340;51.402;0.016;2022-09-09T01:55:01;17.50;99.90
44775;DHT22;31340;51.402;0.016;2022-09-09T01:57:50;17.50;99.90
44775;DHT22;31340;51.402;0.016;2022-09-09T02:00:22;17.50;99.90
44775;DHT22;31340;51.402;0.016;2022-09-09T02:06:14;17.50;99.90
44775;DHT22;31340;51.402;0.016;2022-09-09T02:09:11;17.50;99.90
44775;DHT22;31340;51.402;0.016;2022-09-09T02:11:41;17.50;99.90
44775;DHT22;31340;51.402;0.016;2022-09-09T02:14:25;17.50;99.90
44775;DHT22;31340;51.402;0.016;2022-09-09T02:16:58;17.50;99.90
44775;DHT22;31340;51.402;0.016;2022-09-09T02:19:56;17.50;99.90
44775;DHT22;31340;51.402;0.016;2022-09-09T02:22:39;17.50;99.90
44775;DHT22;31340;51.402;0.016;2022-09-09T02:25:10;17.40;99.90
44775;DHT22;31340;51.402;0.016;2022-09-09T02:27:41;17.50;99.90
44775;DHT22;31340;51.402;0.016;2022-09-09T02:30:11;17.50;99.90
44775;DHT22;31340;51.402;0.016;2022-09-09T02:32:46;17.50;99.90
44775;DHT22;31340;51.402;0.016;2022-09-09T02:35:23;17.50;99.90
44775;DHT22;31340;51.402;0.016;2022-09-09T02:37:54;17.50;99.90
44775;DHT22;31340;51.402;0.016;2022-09-09T02:40:24;17.50;99.90
44775;DHT22;31340;51.402;0.016;2022-09-09T02:42:58;17.50;99.90
44775;DHT22;31340;51.402;0.016;2022-09-09T02:45:36;17.50;99.90
44775;DHT22;31340;51.402;0.016;2022-09-09T02:48:21;17.50;99.90
44775;DHT22;31340;51.402;0.016;2022-09-09T02:51:18;17.50;99.90
44775;DHT22;31340;51.402;0.016;2022-09-09T02:56:49;17.50;99.90
44775;DHT22;31340;51.402;0.016;2022-09-09T02:59:21;17.50;99.90
44775;DHT22;31340;51.402;0.016;2022-09-09T03:01:48;17.50;99.90
44775;DHT22;31340;51.402;0.016;2022-09-09T03:04:16;17.50;99.90
44775;DHT22;31340;51.402;0.016;2022-09-09T03:06:44;17.50;99.90
44775;DHT22;31340;51.402;0.016;2022-09-09T03:09:18;17.50;99.90
44775;DHT22;31340;51.402;0.016;2022-09-09T03:11:45;17.50;99.90
44775;DHT22;31340;51.402;0.016;2022-09-09T03:14:15;17.50;99.90
44775;DHT22;31340;51.402;0.016;2022-09-09T03:16:43;17.50;99.90
44775;DHT22;31340;51.402;0.016;2022-09-09T03:19:11;17.50;99.90
44775;DHT22;31340;51.402;0.016;2022-09-09T03:21:38;17.60;99.90
44775;DHT22;31340;51.402;0.016;2022-09-09T03:24:06;17.50;99.90
44775;DHT22;31340;51.402;0.016;2022-09-09T03:26:34;17.50;99.90
44775;DHT22;31340;51.402;0.016;2022-09-09T03:29:04;17.50;99.90
44775;DHT22;31340;51.402;0.016;2022-09-09T03:31:33;17.50;99.90
44775;DHT22;31340;51.402;0.016;2022-09-09T03:34:02;17.50;99.90
44775;DHT22;31340;51.402;0.016;2022-09-09T03:36:33;17.40;99.90
44775;DHT22;31340;51.402;0.016;2022-09-09T03:39:01;17.40;99.90
44775;DHT22;31340;51.402;0.016;2022-09-09T03:41:31;17.50;99.90
44775;DHT22;31340;51.402;0.016;2022-09-09T03:44:00;17.50;99.90
44775;DHT22;31340;51.402;0.016;2022-09-09T03:46:32;17.50;99.90
44775;DHT22;31340;51.402;0.016;2022-09-09T03:49:01;17.50;99.90
44775;DHT22;31340;51.402;0.016;2022-09-09T03:51:31;17.50;99.90
44775;DHT22;31340;51.402;0.016;2022-09-09T03:54:05;17.40;99.90
44775;DHT22;31340;51.402;0.016;2022-09-09T03:56:36;17.50;99.90
44775;DHT22;31340;51.402;0.016;2022-09-09T03:59:04;17.50;99.90
44775;DHT22;31340;51.402;0.016;2022-09-09T04:01:31;17.50;99.90
44775;DHT22;31340;51.402;0.016;2022-09-09T04:03:59;17.50;99.90
44775;DHT22;31340;51.402;0.016;2022-09-09T04:06:27;17.50;99.90
44775;DHT22;31340;51.402;0.016;2022-09-09T04:08:55;17.50;99.90
44775;DHT22;31340;51.402;0.016;2022-09-09T04:11:24;17.40;99.90
44775;DHT22;31340;51.402;0.016;2022-09-09T04:13:54;17.50;99.90
44775;DHT22;31340;51.402;0.016;2022-09-09T04:16:22;17.50;99.90
44775;DHT22;31340;51.402;0.016;2022-09-09T04:18:51;17.50;99.90
44775;DHT22;31340;51.402;0.016;2022-09-09T04:21:20;17.50;99.90
44775;DHT22;31340;51.402;0.016;2022-09-09T04:23:48;17.50;99.90
44775;DHT22;31340;51.402;0.016;2022-09-09T04:26:16;17.50;99.90
44775;DHT22;31340;51.402;0.016;2022-09-09T04:28:45;17.50;99.90
44775;DHT22;31340;51.402;0.016;2022-09-09T04:31:20;17.50;99.90
44775;DHT22;31340;51.402;0.016;2022-09-09T04:33:53;17.50;99.90
44775;DHT22;31340;51.402;0.016;2022-09-09T04:36:22;17.50;99.90
44775;DHT22;31340;51.402;0.016;2022-09-09T04:38:54;17.50;99.90
44775;DHT22;31340;51.402;0.016;2022-09-09T04:41:22;17.50;99.90
44775;DHT22;31340;51.402;0.016;2022-09-09T04:43:53;17.50;99.90
44775;DHT22;31340;51.402;0.016;2022-09-09T04:46:22;17.50;99.90
44775;DHT22;31340;51.402;0.016;2022-09-09T04:48:51;17.50;99.90
44775;DHT22;31340;51.402;0.016;2022-09-09T04:51:22;17.50;99.90
44775;DHT22;31340;51.402;0.016;2022-09-09T04:53:51;17.50;99.90
44775;DHT22;31340;51.402;0.016;2022-09-09T04:56:21;17.50;99.90
44775;DHT22;31340;51.402;0.016;2022-09-09T04:58:55;17.50;99.90
44775;DHT22;31340;51.402;0.016;2022-09-09T05:01:28;17.50;99.90
44775;DHT22;31340;51.402;0.016;2022-09-09T05:04:02;17.50;99.90
44775;DHT22;31340;51.402;0.016;2022-09-09T05:06:33;17.50;99.90
44775;DHT22;31340;51.402;0.016;2022-09-09T05:09:02;17.50;99.90
44775;DHT22;31340;51.402;0.016;2022-09-09T05:11:32;17.50;99.90
44775;DHT22;31340;51.402;0.016;2022-09-09T05:14:23;17.50;99.90
44775;DHT22;31340;51.402;0.016;2022-09-09T05:16:50;17.40;99.90
44775;DHT22;31340;51.402;0.016;2022-09-09T05:19:18;17.40;99.90
44775;DHT22;31340;51.402;0.016;2022-09-09T05:21:48;17.50;99.90
44775;DHT22;31340;51.402;0.016;2022-09-09T05:24:21;17.50;99.90
44775;DHT22;31340;51.402;0.016;2022-09-09T05:26:53;17.40;99.90
44775;DHT22;31340;51.402;0.016;2022-09-09T05:29:21;17.50;99.90
44775;DHT22;31340;51.402;0.016;2022-09-09T05:31:48;17.50;99.90
44775;DHT22;31340;51.402;0.016;2022-09-09T05:34:20;17.50;99.90
44775;DHT22;31340;51.402;0.016;2022-09-09T05:36:49;17.50;99.90
44775;DHT22;31340;51.402;0.016;2022-09-09T05:39:17;17.50;99.90
44775;DHT22;31340;51.402;0.016;2022-09-09T05:41:45;17.40;99.90
44775;DHT22;31340;51.402;0.016;2022-09-09T05:44:13;17.40;99.90
44775;DHT22;31340;51.402;0.016;2022-09-09T05:46:40;17.40;99.90
44775;DHT22;31340;51.402;0.016;2022-09-09T05:49:08;17.50;99.90
44775;DHT22;31340;51.402;0.016;2022-09-09T05:51:36;17.50;99.90
44775;DHT22;31340;51.402;0.016;2022-09-09T05:54:09;17.50;99.90
44775;DHT22;31340;51.402;0.016;2022-09-09T05:56:42;17.40;99.90
44775;DHT22;31340;51.402;0.016;2022-09-09T05:59:09;17.40;99.90
44775;DHT22;31340;51.402;0.016;2022-09-09T06:01:38;17.50;99.90
44775;DHT22;31340;51.402;0.016;2022-09-09T06:04:14;17.50;99.90
44775;DHT22;31340;51.402;0.016;2022-09-09T06:06:43;17.40;99.90
44775;DHT22;31340;51.402;0.016;2022-09-09T06:09:17;17.50;99.90
44775;DHT22;31340;51.402;0.016;2022-09-09T06:11:44;17.50;99.90
44775;DHT22;31340;51.402;0.016;2022-09-09T06:14:14;17.40;99.90
44775;DHT22;31340;51.402;0.016;2022-09-09T06:16:44;17.50;99.90
44775;DHT22;31340;51.402;0.016;2022-09-09T06:19:17;17.40;99.90
44775;DHT22;31340;51.402;0.016;2022-09-09T06:21:45;17.40;99.90
44775;DHT22;31340;51.402;0.016;2022-09-09T06:24:15;17.40;99.90
44775;DHT22;31340;51.402;0.016;2022-09-09T06:26:45;17.40;99.90
44775;DHT22;31340;51.402;0.016;2022-09-09T06:29:17;17.40;99.90
44775;DHT22;31340;51.402;0.016;2022-09-09T06:31:45;17.40;99.90
44775;DHT22;31340;51.402;0.016;2022-09-09T06:34:16;17.50;99.90
44775;DHT22;31340;51.402;0.016;2022-09-09T06:36:47;17.50;99.90
44775;DHT22;31340;51.402;0.016;2022-09-09T06:39:16;17.50;99.90
44775;DHT22;31340;51.402;0.016;2022-09-09T06:41:45;17.50;99.90
44775;DHT22;31340;51.402;0.016;2022-09-09T06:44:35;17.50;99.90
44775;DHT22;31340;51.402;0.016;2022-09-09T06:47:06;17.50;99.90
44775;DHT22;31340;51.402;0.016;2022-09-09T06:49:34;17.50;99.90
44775;DHT22;31340;51.402;0.016;2022-09-09T06:52:05;17.50;99.90
44775;DHT22;31340;51.402;0.016;2022-09-09T06:54:33;17.50;99.90
44775;DHT22;31340;51.402;0.016;2022-09-09T06:57:04;17.50;99.90
44775;DHT22;31340;51.402;0.016;2022-09-09T06:59:55;17.50;99.90
44775;DHT22;31340;51.402;0.016;2022-09-09T07:02:22;17.40;99.90
44775;DHT22;31340;51.402;0.016;2022-09-09T07:04:51;17.50;99.90
44775;DHT22;31340;51.402;0.016;2022-09-09T07:07:20;17.60;99.90
44775;DHT22;31340;51.402;0.016;2022-09-09T07:09:47;17.60;99.90
44775;DHT22;31340;51.402;0.016;2022-09-09T07:12:16;17.60;99.90
44775;DHT22;31340;51.402;0.016;2022-09-09T07:14:51;17.70;99.90
44775;DHT22;31340;51.402;0.016;2022-09-09T07:17:19;17.70;99.90
44775;DHT22;31340;51.402;0.016;2022-09-09T07:19:46;17.70;99.90
44775;DHT22;31340;51.402;0.016;2022-09-09T07:22:15;17.80;99.90
44775;DHT22;31340;51.402;0.016;2022-09-09T07:24:43;17.80;99.90
44775;DHT22;31340;51.402;0.016;2022-09-09T07:27:13;17.80;99.90
44775;DHT22;31340;51.402;0.016;2022-09-09T07:29:41;17.80;99.90
44775;DHT22;31340;51.402;0.016;2022-09-09T07:32:10;17.80;99.90
44775;DHT22;31340;51.402;0.016;2022-09-09T07:34:38;17.90;99.90
44775;DHT22;31340;51.402;0.016;2022-09-09T07:37:06;17.90;99.90
44775;DHT22;31340;51.402;0.016;2022-09-09T07:39:35;17.90;99.90
44775;DHT22;31340;51.402;0.016;2022-09-09T07:42:02;17.90;99.90
44775;DHT22;31340;51.402;0.016;2022-09-09T07:44:31;17.90;99.90
44775;DHT22;31340;51.402;0.016;2022-09-09T07:47:09;18.00;99.90
44775;DHT22;31340;51.402;0.016;2022-09-09T07:49:41;18.00;99.90
44775;DHT22;31340;51.402;0.016;2022-09-09T07:52:09;18.00;99.90
44775;DHT22;31340;51.402;0.016;2022-09-09T07:54:42;18.10;99.90
44775;DHT22;31340;51.402;0.016;2022-09-09T07:57:10;18.10;99.90
44775;DHT22;31340;51.402;0.016;2022-09-09T07:59:39;18.10;99.90
44775;DHT22;31340;51.402;0.016;2022-09-09T08:02:09;18.20;99.90
44775;DHT22;31340;51.402;0.016;2022-09-09T08:04:36;18.20;99.90
44775;DHT22;31340;51.402;0.016;2022-09-09T08:07:04;18.20;99.90
44775;DHT22;31340;51.402;0.016;2022-09-09T08:09:38;18.20;99.90
44775;DHT22;31340;51.402;0.016;2022-09-09T08:12:14;18.30;99.90
44775;DHT22;31340;51.402;0.016;2022-09-09T08:14:42;18.40;99.90
44775;DHT22;31340;51.402;0.016;2022-09-09T08:17:10;18.40;99.90
44775;DHT22;31340;51.402;0.016;2022-09-09T08:19:38;18.30;99.90
44775;DHT22;31340;51.402;0.016;2022-09-09T08:22:11;18.40;99.90
44775;DHT22;31340;51.402;0.016;2022-09-09T08:24:39;18.40;99.90
44775;DHT22;31340;51.402;0.016;2022-09-09T08:27:08;18.50;99.90
44775;DHT22;31340;51.402;0.016;2022-09-09T08:29:38;18.50;99.90
44775;DHT22;31340;51.402;0.016;2022-09-09T08:32:06;18.50;99.90
44775;DHT22;31340;51.402;0.016;2022-09-09T08:34:35;18.50;99.90
44775;DHT22;31340;51.402;0.016;2022-09-09T08:37:11;18.50;99.90
44775;DHT22;31340;51.402;0.016;2022-09-09T08:39:40;18.60;99.90
44775;DHT22;31340;51.402;0.016;2022-09-09T08:47:45;18.70;99.90
44775;DHT22;31340;51.402;0.016;2022-09-09T08:55:44;18.90;99.90
44775;DHT22;31340;51.402;0.016;2022-09-09T08:58:25;18.90;99.90
44775;DHT22;31340;51.402;0.016;2022-09-09T09:03:57;19.10;99.90
44775;DHT22;31340;51.402;0.016;2022-09-09T09:12:00;19.20;99.90
44775;DHT22;31340;51.402;0.016;2022-09-09T09:14:35;19.30;99.90
44775;DHT22;31340;51.402;0.016;2022-09-09T09:17:19;19.40;99.90
44775;DHT22;31340;51.402;0.016;2022-09-09T09:19:49;19.40;99.90
44775;DHT22;31340;51.402;0.016;2022-09-09T09:22:25;19.40;99.90
44775;DHT22;31340;51.402;0.016;2022-09-09T09:25:27;19.40;99.90
44775;DHT22;31340;51.402;0.016;2022-09-09T09:28:35;19.40;99.90
44775;DHT22;31340;51.402;0.016;2022-09-09T09:31:12;19.40;99.90
44775;DHT22;31340;51.402;0.016;2022-09-09T09:33:51;19.40;99.90
44775;DHT22;31340;51.402;0.016;2022-09-09T09:36:44;19.40;99.90
44775;DHT22;31340;51.402;0.016;2022-09-09T09:39:30;19.40;99.90
44775;DHT22;31340;51.402;0.016;2022-09-09T09:42:18;19.40;99.90
44775;DHT22;31340;51.402;0.016;2022-09-09T09:44:52;19.40;99.90
44775;DHT22;31340;51.402;0.016;2022-09-09T09:47:23;19.50;99.90
44775;DHT22;31340;51.402;0.016;2022-09-09T09:50:00;19.50;99.90
44775;DHT22;31340;51.402;0.016;2022-09-09T09:52:35;19.50;99.90
44775;DHT22;31340;51.402;0.016;2022-09-09T09:55:12;19.60;99.90
44775;DHT22;31340;51.402;0.016;2022-09-09T09:57:42;19.70;99.90
44775;DHT22;31340;51.402;0.016;2022-09-09T10:02:51;19.80;99.90
44775;DHT22;31340;51.402;0.016;2022-09-09T10:05:29;19.90;99.90
44775;DHT22;31340;51.402;0.016;2022-09-09T10:11:04;20.00;99.90
44775;DHT22;31340;51.402;0.016;2022-09-09T10:13:58;20.10;99.90
44775;DHT22;31340;51.402;0.016;2022-09-09T10:16:59;20.20;99.90
44775;DHT22;31340;51.402;0.016;2022-09-09T10:19:35;20.20;99.90
44775;DHT22;31340;51.402;0.016;2022-09-09T10:22:22;20.30;99.80
44775;DHT22;31340;51.402;0.016;2022-09-09T10:25:21;20.30;99.70
44775;DHT22;31340;51.402;0.016;2022-09-09T10:33:11;20.50;99.10
44775;DHT22;31340;51.402;0.016;2022-09-09T10:38:29;20.60;98.90
44775;DHT22;31340;51.402;0.016;2022-09-09T10:41:19;20.60;98.80
44775;DHT22;31340;51.402;0.016;2022-09-09T10:43:54;20.70;98.60
44775;DHT22;31340;51.402;0.016;2022-09-09T10:55:10;20.80;97.80
44775;DHT22;31340;51.402;0.016;2022-09-09T10:57:48;20.90;97.70
44775;DHT22;31340;51.402;0.016;2022-09-09T11:02:43;20.90;97.90
44775;DHT22;31340;51.402;0.016;2022-09-09T11:05:18;21.00;97.50
44775;DHT22;31340;51.402;0.016;2022-09-09T11:07:58;21.00;97.20
44775;DHT22;31340;51.402;0.016;2022-09-09T11:16:47;21.00;97.40
44775;DHT22;31340;51.402;0.016;2022-09-09T11:25:10;21.10;97.80
44775;DHT22;31340;51.402;0.016;2022-09-09T11:31:03;21.10;98.20
44775;DHT22;31340;51.402;0.016;2022-09-09T11:38:59;21.20;98.10
44775;DHT22;31340;51.402;0.016;2022-09-09T11:41:35;21.20;98.20
44775;DHT22;31340;51.402;0.016;2022-09-09T11:44:19;21.20;97.70
44775;DHT22;31340;51.402;0.016;2022-09-09T11:46:52;21.20;97.50
44775;DHT22;31340;51.402;0.016;2022-09-09T11:49:43;21.20;97.20
44775;DHT22;31340;51.402;0.016;2022-09-09T11:55:27;21.20;96.60
44775;DHT22;31340;51.402;0.016;2022-09-09T12:00:36;21.00;96.90
44775;DHT22;31340;51.402;0.016;2022-09-09T12:03:06;21.00;96.80
44775;DHT22;31340;51.402;0.016;2022-09-09T12:05:43;21.00;96.70
44775;DHT22;31340;51.402;0.016;2022-09-09T12:08:17;21.00;96.50
44775;DHT22;31340;51.402;0.016;2022-09-09T12:10:58;21.00;96.90
44775;DHT22;31340;51.402;0.016;2022-09-09T12:13:27;21.00;96.80
44775;DHT22;31340;51.402;0.016;2022-09-09T12:15:56;21.00;97.20
44775;DHT22;31340;51.402;0.016;2022-09-09T12:18:34;21.10;96.80
44775;DHT22;31340;51.402;0.016;2022-09-09T12:23:58;21.20;96.20
44775;DHT22;31340;51.402;0.016;2022-09-09T12:26:49;21.30;96.40
44775;DHT22;31340;51.402;0.016;2022-09-09T12:29:41;21.40;95.90
44775;DHT22;31340;51.402;0.016;2022-09-09T12:32:15;21.40;95.50
44775;DHT22;31340;51.402;0.016;2022-09-09T12:35:13;21.50;95.50
44775;DHT22;31340;51.402;0.016;2022-09-09T12:38:00;21.60;95.10
44775;DHT22;31340;51.402;0.016;2022-09-09T12:40:33;21.70;94.90
44775;DHT22;31340;51.402;0.016;2022-09-09T12:43:20;21.80;94.60
44775;DHT22;31340;51.402;0.016;2022-09-09T12:45:51;22.00;94.90
44775;DHT22;31340;51.402;0.016;2022-09-09T12:48:38;22.10;94.20
44775;DHT22;31340;51.402;0.016;2022-09-09T12:51:24;22.40;94.30
44775;DHT22;31340;51.402;0.016;2022-09-09T12:53:54;22.60;93.70
44775;DHT22;31340;51.402;0.016;2022-09-09T12:56:24;22.90;93.60
44775;DHT22;31340;51.402;0.016;2022-09-09T12:58:56;23.20;92.70
44775;DHT22;31340;51.402;0.016;2022-09-09T13:01:26;23.40;92.20
44775;DHT22;31340;51.402;0.016;2022-09-09T13:03:55;23.60;91.90
44775;DHT22;31340;51.402;0.016;2022-09-09T13:06:27;23.70;91.10
44775;DHT22;31340;51.402;0.016;2022-09-09T13:09:01;23.80;90.30
44775;DHT22;31340;51.402;0.016;2022-09-09T13:11:44;23.90;90.00
44775;DHT22;31340;51.402;0.016;2022-09-09T13:14:28;23.90;89.40
44775;DHT22;31340;51.402;0.016;2022-09-09T13:16:58;23.90;88.60
44775;DHT22;31340;51.402;0.016;2022-09-09T13:19:30;24.00;88.60
44775;DHT22;31340;51.402;0.016;2022-09-09T13:21:59;24.10;87.60
44775;DHT22;31340;51.402;0.016;2022-09-09T13:24:33;24.10;88.00
44775;DHT22;31340;51.402;0.016;2022-09-09T13:27:04;24.10;87.20
44775;DHT22;31340;51.402;0.016;2022-09-09T13:29:32;24.20;86.80
44775;DHT22;31340;51.402;0.016;2022-09-09T13:32:16;24.30;87.30
44775;DHT22;31340;51.402;0.016;2022-09-09T13:34:55;24.50;84.80
44775;DHT22;31340;51.402;0.016;2022-09-09T13:37:37;24.70;83.30
44775;DHT22;31340;51.402;0.016;2022-09-09T13:40:06;24.80;83.80
44775;DHT22;31340;51.402;0.016;2022-09-09T13:42:38;24.90;83.30
44775;DHT22;31340;51.402;0.016;2022-09-09T13:45:18;25.10;82.60
44775;DHT22;31340;51.402;0.016;2022-09-09T13:47:48;25.20;81.00
44775;DHT22;31340;51.402;0.016;2022-09-09T13:50:23;25.20;81.10
44775;DHT22;31340;51.402;0.016;2022-09-09T13:52:54;25.20;79.70
44775;DHT22;31340;51.402;0.016;2022-09-09T13:55:23;25.20;78.50
44775;DHT22;31340;51.402;0.016;2022-09-09T13:57:59;25.20;78.10
44775;DHT22;31340;51.402;0.016;2022-09-09T14:00:32;25.10;78.70
44775;DHT22;31340;51.402;0.016;2022-09-09T14:03:00;25.10;78.80
44775;DHT22;31340;51.402;0.016;2022-09-09T14:05:33;25.00;79.00
44775;DHT22;31340;51.402;0.016;2022-09-09T14:08:16;24.90;78.80
44775;DHT22;31340;51.402;0.016;2022-09-09T14:10:48;24.90;78.10
44775;DHT22;31340;51.402;0.016;2022-09-09T14:13:15;24.80;79.00
44775;DHT22;31340;51.402;0.016;2022-09-09T14:15:43;24.80;79.10
44775;DHT22;31340;51.402;0.016;2022-09-09T14:18:11;24.90;79.60
44775;DHT22;31340;51.402;0.016;2022-09-09T14:20:40;24.90;79.40
44775;DHT22;31340;51.402;0.016;2022-09-09T14:23:10;24.90;78.00
44775;DHT22;31340;51.402;0.016;2022-09-09T14:25:42;24.90;78.10
44775;DHT22;31340;51.402;0.016;2022-09-09T14:28:11;24.90;78.60
44775;DHT22;31340;51.402;0.016;2022-09-09T14:30:40;24.80;78.40
44775;DHT22;31340;51.402;0.016;2022-09-09T14:33:11;24.90;77.90
44775;DHT22;31340;51.402;0.016;2022-09-09T14:35:39;24.90;77.80
44775;DHT22;31340;51.402;0.016;2022-09-09T14:38:08;24.90;78.00
44775;DHT22;31340;51.402;0.016;2022-09-09T14:40:37;24.80;77.90
44775;DHT22;31340;51.402;0.016;2022-09-09T14:43:05;24.90;77.10
44775;DHT22;31340;51.402;0.016;2022-09-09T14:45:32;25.00;77.60
44775;DHT22;31340;51.402;0.016;2022-09-09T14:48:00;25.10;76.80
44775;DHT22;31340;51.402;0.016;2022-09-09T14:50:28;25.10;75.70
44775;DHT22;31340;51.402;0.016;2022-09-09T14:52:56;25.00;75.10
44775;DHT22;31340;51.402;0.016;2022-09-09T14:55:23;25.00;75.70
44775;DHT22;31340;51.402;0.016;2022-09-09T14:57:51;25.00;75.10
44775;DHT22;31340;51.402;0.016;2022-09-09T15:00:18;24.90;74.90
44775;DHT22;31340;51.402;0.016;2022-09-09T15:02:46;24.80;75.20
44775;DHT22;31340;51.402;0.016;2022-09-09T15:05:13;24.70;75.30
44775;DHT22;31340;51.402;0.016;2022-09-09T15:07:42;24.60;75.70
44775;DHT22;31340;51.402;0.016;2022-09-09T15:10:10;24.50;76.00
44775;DHT22;31340;51.402;0.016;2022-09-09T15:12:38;24.30;76.60
44775;DHT22;31340;51.402;0.016;2022-09-09T15:15:06;24.20;77.20
44775;DHT22;31340;51.402;0.016;2022-09-09T15:17:33;24.10;77.90
44775;DHT22;31340;51.402;0.016;2022-09-09T15:20:03;23.90;78.70
44775;DHT22;31340;51.402;0.016;2022-09-09T15:22:31;23.80;79.10
44775;DHT22;31340;51.402;0.016;2022-09-09T15:24:59;23.70;79.80
44775;DHT22;31340;51.402;0.016;2022-09-09T15:27:26;23.60;80.50
44775;DHT22;31340;51.402;0.016;2022-09-09T15:29:54;23.50;80.80
44775;DHT22;31340;51.402;0.016;2022-09-09T15:32:21;23.40;80.90
44775;DHT22;31340;51.402;0.016;2022-09-09T15:34:49;23.20;82.00
44775;DHT22;31340;51.402;0.016;2022-09-09T15:37:20;23.10;82.20
44775;DHT22;31340;51.402;0.016;2022-09-09T15:39:47;23.10;82.70
44775;DHT22;31340;51.402;0.016;2022-09-09T15:42:15;23.00;82.90
44775;DHT22;31340;51.402;0.016;2022-09-09T15:44:43;23.00;83.10
44775;DHT22;31340;51.402;0.016;2022-09-09T15:47:12;22.90;83.00
44775;DHT22;31340;51.402;0.016;2022-09-09T15:49:42;22.80;83.20
44775;DHT22;31340;51.402;0.016;2022-09-09T15:52:10;22.70;83.40
44775;DHT22;31340;51.402;0.016;2022-09-09T15:54:38;22.70;84.00
44775;DHT22;31340;51.402;0.016;2022-09-09T15:57:10;22.60;84.60
44775;DHT22;31340;51.402;0.016;2022-09-09T15:59:38;22.60;85.40
44775;DHT22;31340;51.402;0.016;2022-09-09T16:02:08;22.50;87.40
44775;DHT22;31340;51.402;0.016;2022-09-09T16:04:36;22.50;88.40
44775;DHT22;31340;51.402;0.016;2022-09-09T16:07:05;22.40;89.70
44775;DHT22;31340;51.402;0.016;2022-09-09T16:09:33;22.40;90.50
44775;DHT22;31340;51.402;0.016;2022-09-09T16:12:03;22.30;91.20
44775;DHT22;31340;51.402;0.016;2022-09-09T16:14:36;22.30;91.80
44775;DHT22;31340;51.402;0.016;2022-09-09T16:17:06;22.20;91.90
44775;DHT22;31340;51.402;0.016;2022-09-09T16:19:33;22.10;92.00
44775;DHT22;31340;51.402;0.016;2022-09-09T16:22:03;22.00;93.10
44775;DHT22;31340;51.402;0.016;2022-09-09T16:24:31;21.90;92.70
44775;DHT22;31340;51.402;0.016;2022-09-09T16:26:58;21.80;92.60
44775;DHT22;31340;51.402;0.016;2022-09-09T16:29:26;21.70;92.60
44775;DHT22;31340;51.402;0.016;2022-09-09T16:31:54;21.50;92.80
44775;DHT22;31340;51.402;0.016;2022-09-09T16:34:27;21.40;93.20
44775;DHT22;31340;51.402;0.016;2022-09-09T16:36:55;21.30;93.20
44775;DHT22;31340;51.402;0.016;2022-09-09T16:39:23;21.30;93.30
44775;DHT22;31340;51.402;0.016;2022-09-09T16:41:50;21.10;93.50
44775;DHT22;31340;51.402;0.016;2022-09-09T16:44:19;21.00;93.90
44775;DHT22;31340;51.402;0.016;2022-09-09T16:46:48;21.00;94.50
44775;DHT22;31340;51.402;0.016;2022-09-09T16:49:24;20.90;94.80
44775;DHT22;31340;51.402;0.016;2022-09-09T16:51:51;20.80;95.00
44775;DHT22;31340;51.402;0.016;2022-09-09T16:54:20;20.80;95.50
44775;DHT22;31340;51.402;0.016;2022-09-09T16:56:49;20.80;95.70
44775;DHT22;31340;51.402;0.016;2022-09-09T16:59:18;20.70;96.00
44775;DHT22;31340;51.402;0.016;2022-09-09T17:01:48;20.70;96.30
44775;DHT22;31340;51.402;0.016;2022-09-09T17:04:19;20.70;96.50
44775;DHT22;31340;51.402;0.016;2022-09-09T17:06:49;20.60;96.60
44775;DHT22;31340;51.402;0.016;2022-09-09T17:09:19;20.60;96.80
44775;DHT22;31340;51.402;0.016;2022-09-09T17:11:47;20.60;97.00
44775;DHT22;31340;51.402;0.016;2022-09-09T17:14:17;20.50;97.30
44775;DHT22;31340;51.402;0.016;2022-09-09T17:16:45;20.50;97.70
44775;DHT22;31340;51.402;0.016;2022-09-09T17:19:14;20.50;97.70
44775;DHT22;31340;51.402;0.016;2022-09-09T17:21:42;20.50;98.00
44775;DHT22;31340;51.402;0.016;2022-09-09T17:24:29;20.50;98.30
44775;DHT22;31340;51.402;0.016;2022-09-09T17:26:57;20.50;98.50
44775;DHT22;31340;51.402;0.016;2022-09-09T17:29:25;20.40;98.70
44775;DHT22;31340;51.402;0.016;2022-09-09T17:31:53;20.50;99.00
44775;DHT22;31340;51.402;0.016;2022-09-09T17:34:22;20.50;99.50
44775;DHT22;31340;51.402;0.016;2022-09-09T17:36:52;20.40;99.40
44775;DHT22;31340;51.402;0.016;2022-09-09T17:39:19;20.40;99.40
44775;DHT22;31340;51.402;0.016;2022-09-09T17:41:47;20.40;99.60
44775;DHT22;31340;51.402;0.016;2022-09-09T17:44:14;20.40;99.70
44775;DHT22;31340;51.402;0.016;2022-09-09T17:46:43;20.40;99.80
44775;DHT22;31340;51.402;0.016;2022-09-09T17:49:14;20.40;99.90
44775;DHT22;31340;51.402;0.016;2022-09-09T17:51:43;20.40;99.90
44775;DHT22;31340;51.402;0.016;2022-09-09T17:54:16;20.40;99.90